Time;durP1;ratioP1;P1;durP2;ratioP2;P2;SDS_P1;SDS_P2;PMS_P1;PMS_P2;Temp;Humidity;BMP_temperature;BMP_pressure;BME280_temperature;BME280_humidity;BME280_pressure;Samples;Min_cycle;Max_cycle;Signal;HPM_P1;HPM_P2
2021/12/30 00:00:27;;;;;;;1.63;0.60;;;26.10;99.90;;;;;;5052396;28;20289;-75
2021/12/30 00:02:58;;;;;;;2.33;0.40;;;26.20;99.90;;;;;;5051399;28;20205;-75
2021/12/30 00:05:28;;;;;;;3.90;0.70;;;26.10;99.90;;;;;;5053056;28;20251;-75
2021/12/30 00:07:59;;;;;;;1.67;0.47;;;26.50;99.90;;;;;;5051622;28;20203;-74
2021/12/30 00:10:30;;;;;;;1.75;0.50;;;26.80;99.90;;;;;;5043461;28;20244;-74
2021/12/30 00:13:02;;;;;;;0.95;0.40;;;26.80;99.90;;;;;;5052994;28;20197;-75
2021/12/30 00:15:33;;;;;;;1.45;0.50;;;26.60;99.90;;;;;;5053412;28;20193;-74
2021/12/30 00:18:04;;;;;;;2.78;0.60;;;26.60;99.90;;;;;;5052498;28;20224;-75
2021/12/30 00:20:35;;;;;;;1.33;0.50;;;26.70;99.90;;;;;;5051944;28;20186;-74
2021/12/30 00:23:08;;;;;;;1.98;0.75;;;26.80;99.90;;;;;;5052549;28;20641;-73
2021/12/30 00:25:41;;;;;;;2.35;0.43;;;27.00;99.90;;;;;;5056372;28;20632;-74
2021/12/30 00:28:16;;;;;;;1.50;0.45;;;27.00;99.90;;;;;;5033159;28;20190;-76
2021/12/30 00:30:49;;;;;;;1.30;0.40;;;26.80;99.90;;;;;;5040249;28;20181;-76
2021/12/30 00:33:20;;;;;;;1.85;0.50;;;26.70;99.90;;;;;;5051670;28;20189;-76
2021/12/30 00:35:52;;;;;;;0.55;0.40;;;26.40;99.90;;;;;;5051462;28;20599;-75
2021/12/30 00:38:23;;;;;;;1.80;0.50;;;26.40;99.90;;;;;;5052012;28;20204;-76
2021/12/30 00:40:53;;;;;;;1.38;0.65;;;26.70;99.90;;;;;;5051977;28;20267;-75
2021/12/30 00:43:26;;;;;;;2.47;0.40;;;26.90;99.90;;;;;;5052262;28;20193;-76
2021/12/30 00:45:57;;;;;;;3.40;0.40;;;26.50;99.90;;;;;;5050565;28;20189;-76
2021/12/30 00:48:28;;;;;;;1.20;0.52;;;26.80;99.90;;;;;;5051746;28;20208;-75
2021/12/30 00:50:58;;;;;;;2.25;0.50;;;26.70;99.90;;;;;;5051303;28;20634;-74
2021/12/30 00:53:32;;;;;;;3.15;0.50;;;26.70;99.90;;;;;;5051989;28;20189;-75
2021/12/30 00:56:03;;;;;;;2.70;0.40;;;27.00;99.90;;;;;;5048580;28;20185;-75
2021/12/30 00:58:39;;;;;;;1.42;0.32;;;27.20;99.90;;;;;;5052770;28;20251;-74
2021/12/30 01:01:10;;;;;;;1.25;0.40;;;26.90;99.90;;;;;;5046849;28;20190;-75
2021/12/30 01:03:40;;;;;;;2.97;0.60;;;26.90;99.90;;;;;;5052479;28;20194;-73
2021/12/30 01:06:12;;;;;;;3.28;0.45;;;27.00;99.90;;;;;;5052011;28;20189;-75
2021/12/30 01:08:42;;;;;;;1.20;0.50;;;26.90;99.90;;;;;;5048234;28;20646;-75
2021/12/30 01:11:14;;;;;;;1.15;0.40;;;26.90;99.90;;;;;;5052083;28;20282;-75
2021/12/30 01:13:51;;;;;;;1.85;0.40;;;26.80;99.90;;;;;;5052352;28;20190;-75
2021/12/30 01:16:24;;;;;;;4.32;0.40;;;26.70;99.90;;;;;;5055598;28;20648;-75
2021/12/30 01:19:03;;;;;;;1.20;0.35;;;26.30;99.90;;;;;;5055395;28;20193;-74
2021/12/30 01:21:38;;;;;;;2.72;0.32;;;26.50;99.90;;;;;;5055880;28;20188;-76
2021/12/30 01:24:09;;;;;;;1.98;0.40;;;26.50;99.90;;;;;;5056316;28;20194;-75
2021/12/30 01:26:40;;;;;;;2.28;0.30;;;26.60;99.90;;;;;;5050917;28;20194;-76
2021/12/30 01:29:13;;;;;;;1.92;0.43;;;26.50;99.90;;;;;;5055831;28;20185;-74
2021/12/30 01:31:44;;;;;;;1.83;0.50;;;26.50;99.90;;;;;;5055224;28;20645;-76
2021/12/30 01:34:14;;;;;;;2.72;0.40;;;26.50;99.90;;;;;;5056113;28;20200;-75
2021/12/30 01:36:45;;;;;;;2.17;0.40;;;26.60;99.90;;;;;;5055930;28;20307;-75
2021/12/30 01:39:17;;;;;;;1.67;0.30;;;26.60;99.90;;;;;;5055078;28;20221;-75
2021/12/30 01:41:48;;;;;;;1.08;0.30;;;26.50;99.90;;;;;;5055473;28;20189;-76
2021/12/30 01:44:21;;;;;;;2.35;0.50;;;26.50;99.90;;;;;;5055793;28;20213;-76
2021/12/30 01:46:52;;;;;;;1.75;0.40;;;26.40;99.90;;;;;;5055076;28;20607;-75
2021/12/30 01:49:24;;;;;;;2.35;0.38;;;26.50;99.90;;;;;;5055548;28;20197;-76
2021/12/30 01:51:56;;;;;;;1.60;0.28;;;26.60;99.90;;;;;;5054167;28;20263;-75
2021/12/30 01:54:28;;;;;;;1.02;0.30;;;26.50;99.90;;;;;;5055732;28;20197;-75
2021/12/30 01:57:05;;;;;;;1.38;0.40;;;26.50;99.90;;;;;;5055121;28;20697;-75
2021/12/30 01:59:39;;;;;;;3.38;0.40;;;26.60;99.90;;;;;;5054496;28;20196;-76
2021/12/30 02:02:10;;;;;;;2.05;0.45;;;26.50;99.90;;;;;;5054818;28;20268;-76
2021/12/30 02:04:41;;;;;;;1.33;0.32;;;26.40;99.90;;;;;;5055536;28;20193;-76
2021/12/30 02:07:13;;;;;;;2.47;0.30;;;26.50;99.90;;;;;;5055388;28;20199;-76
2021/12/30 02:09:44;;;;;;;1.92;0.47;;;26.70;99.90;;;;;;5053715;28;20307;-75
2021/12/30 02:12:15;;;;;;;1.27;0.30;;;26.70;99.90;;;;;;5055153;28;20193;-76
2021/12/30 02:14:47;;;;;;;2.67;0.40;;;26.60;99.90;;;;;;5054944;28;20564;-75
2021/12/30 02:17:18;;;;;;;3.33;0.38;;;26.50;99.90;;;;;;5046783;28;20296;-76
2021/12/30 02:19:52;;;;;;;0.98;0.30;;;26.60;99.90;;;;;;5055199;28;20200;-75
2021/12/30 02:22:26;;;;;;;2.83;0.40;;;26.50;99.90;;;;;;5054223;28;20646;-76
2021/12/30 02:24:57;;;;;;;2.10;0.32;;;26.50;99.90;;;;;;5053121;28;20276;-75
2021/12/30 02:27:29;;;;;;;0.55;0.40;;;26.60;99.90;;;;;;5049608;28;20697;-75
2021/12/30 02:30:00;;;;;;;2.53;0.30;;;26.50;99.90;;;;;;5053105;28;20286;-76
2021/12/30 02:32:30;;;;;;;1.77;0.40;;;26.40;99.90;;;;;;5055385;28;20196;-75
2021/12/30 02:35:02;;;;;;;2.75;0.73;;;26.20;99.90;;;;;;5054227;28;20284;-76
2021/12/30 02:37:35;;;;;;;2.15;0.50;;;26.50;99.90;;;;;;5054344;28;20219;-76
2021/12/30 02:40:06;;;;;;;2.10;0.40;;;26.60;99.90;;;;;;5054901;28;20668;-76
2021/12/30 02:42:37;;;;;;;2.97;0.40;;;26.40;99.90;;;;;;5063051;28;20201;-76
2021/12/30 02:45:08;;;;;;;0.47;0.32;;;26.50;99.90;;;;;;5062738;28;20205;-75
2021/12/30 02:47:41;;;;;;;0.73;0.20;;;26.50;99.90;;;;;;5058714;28;20216;-76
2021/12/30 02:50:12;;;;;;;3.28;0.35;;;26.40;99.90;;;;;;5053444;28;20201;-75
2021/12/30 02:52:45;;;;;;;1.65;0.30;;;26.40;99.90;;;;;;5060369;28;20200;-75
2021/12/30 02:55:16;;;;;;;1.10;0.40;;;26.40;99.90;;;;;;5062497;28;20209;-75
2021/12/30 02:57:47;;;;;;;2.42;0.40;;;26.20;99.90;;;;;;5057569;28;20229;-76
2021/12/30 03:00:18;;;;;;;1.65;0.43;;;26.20;99.90;;;;;;5059464;28;20205;-76
2021/12/30 03:02:48;;;;;;;2.45;0.30;;;26.20;99.90;;;;;;5052925;28;20205;-76
2021/12/30 03:05:21;;;;;;;2.53;0.60;;;26.30;99.90;;;;;;5053726;28;20601;-76
2021/12/30 03:07:56;;;;;;;1.80;0.32;;;26.10;99.90;;;;;;5053796;28;20237;-76
2021/12/30 03:10:29;;;;;;;2.75;0.47;;;25.90;99.90;;;;;;5053432;28;20766;-77
2021/12/30 03:13:04;;;;;;;2.55;0.38;;;25.90;99.90;;;;;;5034189;28;20260;-76
2021/12/30 03:15:37;;;;;;;1.73;0.55;;;25.90;99.90;;;;;;5054028;28;20185;-76
2021/12/30 03:18:08;;;;;;;3.20;0.40;;;26.00;99.90;;;;;;5038219;28;20621;-76
2021/12/30 03:20:39;;;;;;;1.02;0.30;;;26.10;99.90;;;;;;5052647;28;20598;-75
2021/12/30 03:23:12;;;;;;;2.30;0.50;;;26.10;99.90;;;;;;5053107;28;20197;-75
2021/12/30 03:25:42;;;;;;;2.28;0.40;;;26.20;99.90;;;;;;5053298;28;20185;-76
2021/12/30 03:28:13;;;;;;;2.72;0.40;;;26.10;99.90;;;;;;5052737;28;20194;-76
2021/12/30 03:30:44;;;;;;;3.28;0.50;;;26.10;99.90;;;;;;5052372;28;21958;-76
2021/12/30 03:33:14;;;;;;;1.23;0.38;;;26.30;99.90;;;;;;5050661;28;20189;-76
2021/12/30 03:35:45;;;;;;;1.05;0.43;;;26.10;99.90;;;;;;5053129;28;20201;-76
2021/12/30 03:38:18;;;;;;;2.17;0.30;;;26.10;99.90;;;;;;5052003;28;20221;-76
2021/12/30 03:40:49;;;;;;;2.05;0.30;;;26.10;99.90;;;;;;5052386;28;20192;-76
2021/12/30 03:43:23;;;;;;;1.30;0.20;;;26.10;99.90;;;;;;5053633;28;20190;-76
2021/12/30 03:45:54;;;;;;;1.17;0.40;;;25.90;99.90;;;;;;5053452;28;20227;-76
2021/12/30 03:48:32;;;;;;;2.88;0.45;;;25.90;99.90;;;;;;5052083;28;20274;-75
2021/12/30 03:51:05;;;;;;;0.90;0.30;;;25.60;99.90;;;;;;5051453;28;20217;-76
2021/12/30 03:53:42;;;;;;;0.98;0.30;;;25.70;99.90;;;;;;5052353;28;20194;-75
2021/12/30 03:56:14;;;;;;;2.20;0.35;;;25.60;99.90;;;;;;5051988;28;20213;-75
2021/12/30 03:58:46;;;;;;;1.00;0.55;;;25.70;99.90;;;;;;5051502;28;20673;-76
2021/12/30 04:01:21;;;;;;;1.30;0.22;;;25.80;99.90;;;;;;5050199;28;20198;-76
2021/12/30 04:03:53;;;;;;;2.60;0.43;;;25.90;99.90;;;;;;5053114;28;20200;-75
2021/12/30 04:06:24;;;;;;;2.35;0.43;;;26.10;99.90;;;;;;5052086;28;20590;-77
2021/12/30 04:08:56;;;;;;;3.13;0.50;;;26.10;99.90;;;;;;5052426;28;20555;-76
2021/12/30 04:11:30;;;;;;;1.73;0.30;;;25.90;99.90;;;;;;5052589;28;20225;-75
2021/12/30 04:14:01;;;;;;;1.40;0.32;;;25.90;99.90;;;;;;5052601;28;20360;-76
2021/12/30 04:16:32;;;;;;;1.50;0.30;;;25.80;99.90;;;;;;5049735;28;20641;-75
2021/12/30 04:19:03;;;;;;;4.22;0.30;;;25.80;99.90;;;;;;5051505;28;20225;-75
2021/12/30 04:21:34;;;;;;;2.08;0.40;;;25.60;99.90;;;;;;5052731;28;20197;-75
2021/12/30 04:24:07;;;;;;;5.50;0.47;;;25.60;99.90;;;;;;5047782;28;20537;-75
2021/12/30 04:26:38;;;;;;;1.88;0.50;;;25.80;99.90;;;;;;5050985;28;20186;-77
2021/12/30 04:29:09;;;;;;;4.68;0.60;;;25.90;99.90;;;;;;5051965;28;20193;-75
2021/12/30 04:31:39;;;;;;;2.80;0.38;;;25.70;99.90;;;;;;5051886;28;20196;-75
2021/12/30 04:34:10;;;;;;;0.70;0.20;;;25.60;99.90;;;;;;5052206;28;20194;-75
2021/12/30 04:36:41;;;;;;;1.70;0.30;;;25.70;99.90;;;;;;5053648;28;20181;-76
2021/12/30 04:39:14;;;;;;;2.75;0.30;;;25.80;99.90;;;;;;5048598;28;20742;-76
2021/12/30 04:41:45;;;;;;;0.73;0.20;;;25.70;99.90;;;;;;5052805;28;20198;-76
2021/12/30 04:44:16;;;;;;;0.52;0.20;;;25.70;99.90;;;;;;5051894;28;20189;-76
2021/12/30 04:46:47;;;;;;;3.20;0.40;;;25.90;99.90;;;;;;5052465;28;20194;-78
2021/12/30 04:49:17;;;;;;;2.53;0.50;;;25.90;99.90;;;;;;5054259;28;20197;-76
2021/12/30 04:51:48;;;;;;;1.08;0.20;;;25.90;99.90;;;;;;5055907;28;20667;-76
2021/12/30 04:54:21;;;;;;;2.00;0.30;;;25.80;99.90;;;;;;5051639;28;20197;-76
2021/12/30 04:56:52;;;;;;;1.33;0.20;;;25.70;99.90;;;;;;5055568;28;20197;-75
2021/12/30 04:59:23;;;;;;;2.15;0.30;;;25.70;99.90;;;;;;5055249;28;20310;-76
2021/12/30 05:01:53;;;;;;;1.30;0.30;;;25.50;99.90;;;;;;5056071;28;20637;-75
2021/12/30 05:04:24;;;;;;;1.20;0.30;;;25.60;99.90;;;;;;5055550;28;20250;-76
2021/12/30 05:06:55;;;;;;;1.55;0.80;;;25.70;99.90;;;;;;5056036;28;20201;-75
2021/12/30 05:09:27;;;;;;;2.55;0.93;;;25.60;99.90;;;;;;5055288;28;20186;-76
2021/12/30 05:11:58;;;;;;;1.33;0.30;;;25.70;99.90;;;;;;5042407;28;20221;-76
2021/12/30 05:14:29;;;;;;;1.23;0.30;;;25.80;99.90;;;;;;5056687;28;20197;-75
2021/12/30 05:17:03;;;;;;;1.70;0.20;;;25.80;99.90;;;;;;5055580;28;20775;-75
2021/12/30 05:19:33;;;;;;;2.88;0.50;;;25.80;99.90;;;;;;5054598;28;20205;-76
2021/12/30 05:22:05;;;;;;;1.38;0.40;;;25.70;99.90;;;;;;5051562;28;20251;-76
2021/12/30 05:24:37;;;;;;;1.58;0.40;;;25.80;99.90;;;;;;5055972;28;20193;-76
2021/12/30 05:27:08;;;;;;;4.13;0.40;;;25.80;99.90;;;;;;5056039;28;20189;-76
2021/12/30 05:29:38;;;;;;;3.72;0.43;;;25.80;99.90;;;;;;5056193;28;20605;-77
2021/12/30 05:32:09;;;;;;;2.53;0.40;;;25.80;99.90;;;;;;5056243;28;20201;-76
2021/12/30 05:34:40;;;;;;;1.40;0.30;;;25.60;99.90;;;;;;5055945;28;20575;-77
2021/12/30 05:37:11;;;;;;;1.52;0.30;;;25.60;99.90;;;;;;5055879;28;20197;-76
2021/12/30 05:39:43;;;;;;;1.95;0.40;;;25.50;99.90;;;;;;5055256;28;20237;-75
2021/12/30 05:42:14;;;;;;;0.68;0.25;;;25.50;99.90;;;;;;5054687;28;20209;-76
2021/12/30 05:44:44;;;;;;;0.68;0.30;;;25.50;99.90;;;;;;5055078;28;20189;-77
2021/12/30 05:47:15;;;;;;;3.63;0.40;;;25.50;99.90;;;;;;5054193;28;20186;-76
2021/12/30 05:49:46;;;;;;;0.30;0.20;;;25.60;99.90;;;;;;5054969;28;20196;-76
2021/12/30 05:52:17;;;;;;;0.90;0.28;;;25.50;99.90;;;;;;5052445;28;20567;-76
2021/12/30 05:54:50;;;;;;;1.45;0.30;;;25.50;99.90;;;;;;5053968;28;20196;-77
2021/12/30 05:57:20;;;;;;;1.35;0.30;;;25.50;99.90;;;;;;5054372;28;20264;-76
2021/12/30 05:59:51;;;;;;;3.10;0.40;;;25.60;99.90;;;;;;5053391;28;20610;-76
2021/12/30 06:02:22;;;;;;;1.20;0.30;;;25.70;99.90;;;;;;5035691;28;20190;-77
2021/12/30 06:04:53;;;;;;;1.23;0.30;;;25.60;99.90;;;;;;5044326;28;20193;-77
2021/12/30 06:07:24;;;;;;;1.48;0.20;;;25.40;99.90;;;;;;5054519;28;20671;-75
2021/12/30 06:09:56;;;;;;;1.05;0.20;;;25.40;99.90;;;;;;5055233;28;21041;-76
2021/12/30 06:12:27;;;;;;;1.85;0.28;;;25.50;99.90;;;;;;5060921;28;20192;-77
2021/12/30 06:14:58;;;;;;;2.85;0.30;;;25.40;99.90;;;;;;5056731;28;20196;-76
2021/12/30 06:17:29;;;;;;;0.73;0.30;;;25.40;99.90;;;;;;5051093;28;20198;-77
2021/12/30 06:19:59;;;;;;;3.40;0.28;;;25.30;99.90;;;;;;5054361;28;20209;-76
2021/12/30 06:22:30;;;;;;;1.38;0.30;;;25.30;99.90;;;;;;5054903;28;20201;-76
2021/12/30 06:25:03;;;;;;;0.70;0.28;;;25.30;99.90;;;;;;5054619;28;20634;-76
2021/12/30 06:27:34;;;;;;;2.85;0.30;;;25.30;99.90;;;;;;5054142;28;20190;-78
2021/12/30 06:30:06;;;;;;;2.42;0.30;;;25.30;99.90;;;;;;5054909;28;20197;-77
2021/12/30 06:32:36;;;;;;;1.58;0.28;;;25.20;99.90;;;;;;5055067;28;20194;-76
2021/12/30 06:35:08;;;;;;;2.00;0.40;;;25.20;99.90;;;;;;5054646;28;20190;-76
2021/12/30 06:37:39;;;;;;;2.35;0.40;;;25.20;99.90;;;;;;5052868;28;20202;-76
2021/12/30 06:40:14;;;;;;;1.40;0.40;;;25.20;99.90;;;;;;5052195;28;20228;-76
2021/12/30 06:42:46;;;;;;;2.13;0.30;;;25.20;99.90;;;;;;5049854;28;20197;-76
2021/12/30 06:45:16;;;;;;;1.17;0.40;;;25.20;99.90;;;;;;5054878;28;20208;-77
2021/12/30 06:47:47;;;;;;;2.15;0.25;;;25.20;99.90;;;;;;5054856;28;20652;-77
2021/12/30 06:50:20;;;;;;;1.13;0.30;;;25.10;99.90;;;;;;5039873;28;20194;-77
2021/12/30 06:52:51;;;;;;;3.58;0.43;;;25.10;99.90;;;;;;5044077;28;20185;-77
2021/12/30 06:55:23;;;;;;;2.50;0.22;;;25.00;99.90;;;;;;5054205;28;20251;-77
2021/12/30 06:57:54;;;;;;;0.85;0.40;;;24.90;99.90;;;;;;5053267;28;20182;-78
2021/12/30 07:00:25;;;;;;;3.22;0.38;;;24.90;99.90;;;;;;5054540;28;20228;-77
2021/12/30 07:02:56;;;;;;;1.80;0.30;;;24.90;99.90;;;;;;5053666;28;20209;-76
2021/12/30 07:05:27;;;;;;;0.95;0.22;;;24.80;99.90;;;;;;5054343;28;20668;-77
2021/12/30 07:07:58;;;;;;;2.92;0.30;;;24.80;99.90;;;;;;5054515;28;20618;-77
2021/12/30 07:10:31;;;;;;;1.27;0.30;;;24.70;99.90;;;;;;5054038;28;20237;-76
2021/12/30 07:13:02;;;;;;;2.78;0.30;;;24.80;99.90;;;;;;5053364;28;20185;-76
2021/12/30 07:15:33;;;;;;;1.05;0.22;;;24.70;99.90;;;;;;5053733;28;20227;-77
2021/12/30 07:18:03;;;;;;;2.78;0.40;;;24.70;99.90;;;;;;5048946;28;20189;-77
2021/12/30 07:20:34;;;;;;;0.77;0.20;;;24.60;99.90;;;;;;5053235;28;20190;-76
2021/12/30 07:23:05;;;;;;;1.67;0.45;;;24.60;99.90;;;;;;5052864;28;20550;-77
2021/12/30 07:25:38;;;;;;;1.17;0.25;;;24.60;99.90;;;;;;5052396;28;20197;-76
2021/12/30 07:28:09;;;;;;;2.08;0.50;;;24.50;99.90;;;;;;5051448;28;20186;-76
2021/12/30 07:30:40;;;;;;;2.25;0.28;;;24.40;99.90;;;;;;5053697;28;20709;-76
2021/12/30 07:33:10;;;;;;;0.68;0.30;;;24.40;99.90;;;;;;5052438;28;20193;-76
2021/12/30 07:35:41;;;;;;;2.70;0.38;;;24.30;99.90;;;;;;5047892;28;20201;-77
2021/12/30 07:38:12;;;;;;;1.55;0.35;;;24.40;99.90;;;;;;5050496;28;20193;-76
2021/12/30 07:40:45;;;;;;;1.25;0.32;;;24.40;99.90;;;;;;5048482;28;20295;-76
2021/12/30 07:43:15;;;;;;;3.17;0.43;;;24.40;99.90;;;;;;5052258;28;20186;-76
2021/12/30 07:45:46;;;;;;;1.48;0.25;;;24.40;99.90;;;;;;5053127;28;20185;-76
2021/12/30 07:48:18;;;;;;;1.30;0.20;;;24.40;99.90;;;;;;5053161;28;20239;-76
2021/12/30 07:50:49;;;;;;;3.60;0.40;;;24.40;99.90;;;;;;5046201;28;20715;-76
2021/12/30 07:53:20;;;;;;;1.70;0.30;;;24.40;99.90;;;;;;5052253;28;20193;-77
2021/12/30 07:55:53;;;;;;;4.45;0.57;;;24.50;99.90;;;;;;5052657;28;20206;-75
2021/12/30 07:58:24;;;;;;;2.53;0.45;;;24.40;99.90;;;;;;5052645;28;20194;-77
2021/12/30 08:00:55;;;;;;;1.75;0.30;;;24.30;99.90;;;;;;5052467;28;20186;-75
2021/12/30 08:03:25;;;;;;;3.17;0.40;;;24.30;99.90;;;;;;5053242;28;20197;-75
2021/12/30 08:05:56;;;;;;;1.50;0.40;;;24.20;99.90;;;;;;5058881;28;20189;-75
2021/12/30 08:08:27;;;;;;;1.05;0.40;;;24.20;99.90;;;;;;5052893;28;20198;-77
2021/12/30 08:11:00;;;;;;;2.75;0.50;;;24.10;99.90;;;;;;5052354;28;20358;-76
2021/12/30 08:13:30;;;;;;;3.58;0.40;;;24.10;99.90;;;;;;5052987;28;20181;-75
2021/12/30 08:16:01;;;;;;;4.35;0.50;;;24.00;99.90;;;;;;5052843;28;20193;-76
2021/12/30 08:18:32;;;;;;;3.70;1.05;;;24.00;99.90;;;;;;5049907;28;20568;-76
2021/12/30 08:21:03;;;;;;;2.33;0.38;;;24.00;99.90;;;;;;5051907;28;20232;-76
2021/12/30 08:23:35;;;;;;;2.40;0.50;;;23.90;99.90;;;;;;5052446;28;20186;-76
2021/12/30 08:26:09;;;;;;;2.95;0.40;;;23.90;99.90;;;;;;5054480;28;20193;-75
2021/12/30 08:28:41;;;;;;;2.65;0.40;;;23.80;99.90;;;;;;5053014;28;20193;-75
2021/12/30 08:31:12;;;;;;;1.83;0.30;;;23.70;99.90;;;;;;5052649;28;20192;-76
2021/12/30 08:33:45;;;;;;;1.77;0.30;;;23.60;99.90;;;;;;5043900;28;20197;-76
2021/12/30 08:36:16;;;;;;;2.05;0.38;;;23.60;99.90;;;;;;5042489;28;20209;-76
2021/12/30 08:38:47;;;;;;;2.38;0.40;;;23.50;99.90;;;;;;5051658;28;20300;-75
2021/12/30 08:41:19;;;;;;;5.00;0.47;;;23.40;99.90;;;;;;5052695;28;20262;-75
2021/12/30 08:43:50;;;;;;;3.72;0.50;;;23.40;99.90;;;;;;5052570;28;20201;-75
2021/12/30 08:46:21;;;;;;;2.72;0.50;;;23.30;99.90;;;;;;5032974;28;20186;-75
2021/12/30 08:48:52;;;;;;;2.92;0.50;;;23.30;99.90;;;;;;5033206;28;20660;-76
2021/12/30 08:51:25;;;;;;;1.95;0.40;;;23.20;99.90;;;;;;5044382;28;20189;-76
2021/12/30 08:53:56;;;;;;;4.60;0.43;;;23.20;99.90;;;;;;5046667;28;20190;-76
2021/12/30 08:56:29;;;;;;;3.63;0.50;;;23.10;99.90;;;;;;5051937;28;20194;-76
2021/12/30 08:58:59;;;;;;;3.72;0.40;;;23.10;99.90;;;;;;5051855;28;20213;-76
2021/12/30 09:01:31;;;;;;;2.28;0.50;;;23.10;99.90;;;;;;5051775;28;20280;-75
2021/12/30 09:04:01;;;;;;;3.47;0.50;;;23.00;99.90;;;;;;5052645;28;20638;-76
2021/12/30 09:06:32;;;;;;;1.42;0.40;;;23.00;99.90;;;;;;5047996;28;20201;-76
2021/12/30 09:09:02;;;;;;;2.55;0.40;;;22.90;99.90;;;;;;5052324;28;20201;-75
2021/12/30 09:11:35;;;;;;;4.22;0.52;;;22.90;99.90;;;;;;5054175;28;20229;-75
2021/12/30 09:14:06;;;;;;;1.25;0.40;;;22.80;99.90;;;;;;5052157;28;20255;-76
2021/12/30 09:16:39;;;;;;;3.40;0.35;;;22.80;99.90;;;;;;5052201;28;20189;-76
2021/12/30 09:19:09;;;;;;;3.40;0.50;;;22.80;99.90;;;;;;5052521;28;20688;-76
2021/12/30 09:21:41;;;;;;;5.15;0.70;;;22.70;99.90;;;;;;5052612;28;20200;-75
2021/12/30 09:24:13;;;;;;;2.95;0.45;;;22.70;99.90;;;;;;5052621;28;20228;-76
2021/12/30 09:26:45;;;;;;;5.05;0.70;;;22.70;99.90;;;;;;5051998;28;20198;-76
2021/12/30 09:29:16;;;;;;;2.45;0.50;;;22.60;99.90;;;;;;5052328;28;20642;-76
2021/12/30 09:31:49;;;;;;;1.95;0.40;;;22.60;99.90;;;;;;5052523;28;20190;-76
2021/12/30 09:34:22;;;;;;;3.67;0.47;;;22.50;99.90;;;;;;5052181;28;20186;-76
2021/12/30 09:36:52;;;;;;;4.30;1.10;;;22.60;99.90;;;;;;5055469;28;20194;-75
2021/12/30 09:39:23;;;;;;;1.85;0.30;;;22.60;99.90;;;;;;5055321;28;20708;-75
2021/12/30 09:41:56;;;;;;;3.55;0.50;;;22.50;99.90;;;;;;5055866;28;20259;-75
2021/12/30 09:44:27;;;;;;;2.33;0.30;;;22.50;99.90;;;;;;5055099;28;20259;-75
2021/12/30 09:46:57;;;;;;;3.05;0.50;;;22.50;99.90;;;;;;5055061;28;20196;-76
2021/12/30 09:49:29;;;;;;;6.05;0.70;;;22.50;99.90;;;;;;5055303;28;20203;-76
2021/12/30 09:52:00;;;;;;;7.47;0.50;;;22.40;99.90;;;;;;5055643;28;20603;-75
2021/12/30 09:54:31;;;;;;;1.88;0.50;;;22.40;99.90;;;;;;5055223;28;20189;-76
2021/12/30 09:57:03;;;;;;;2.22;0.47;;;22.40;99.90;;;;;;5066885;28;20200;-75
2021/12/30 09:59:37;;;;;;;4.88;0.60;;;22.40;99.90;;;;;;5054849;28;20222;-76
2021/12/30 10:02:08;;;;;;;2.35;0.40;;;22.30;99.90;;;;;;5054252;28;20221;-76
2021/12/30 10:04:39;;;;;;;2.88;0.43;;;22.30;99.90;;;;;;5039153;28;20602;-76
2021/12/30 10:07:23;;;;;;;3.25;0.43;;;22.30;99.90;;;;;;5068659;28;20189;-75
2021/12/30 10:09:59;;;;;;;3.00;0.45;;;22.20;99.90;;;;;;5064289;28;20196;-75
2021/12/30 10:12:44;;;;;;;4.35;0.68;;;22.20;99.90;;;;;;5055942;28;20199;-76
2021/12/30 10:15:15;;;;;;;4.25;0.60;;;22.20;99.90;;;;;;5052109;28;20272;-75
2021/12/30 10:17:54;;;;;;;2.15;0.50;;;22.20;99.90;;;;;;5054623;28;20189;-76
2021/12/30 10:20:27;;;;;;;3.25;0.50;;;22.20;99.90;;;;;;5049814;28;20220;-76
2021/12/30 10:23:00;;;;;;;2.75;0.80;;;22.10;99.90;;;;;;5054903;28;20189;-76
2021/12/30 10:25:33;;;;;;;2.05;0.50;;;22.10;99.90;;;;;;5054650;28;20232;-77
2021/12/30 10:28:30;;;;;;;3.22;0.52;;;22.10;99.90;;;;;;5054542;28;20194;-75
2021/12/30 10:31:03;;;;;;;2.83;0.40;;;22.10;99.90;;;;;;5052884;28;20192;-75
2021/12/30 10:33:34;;;;;;;2.10;0.43;;;22.10;99.90;;;;;;5054322;28;20248;-77
2021/12/30 10:36:16;;;;;;;3.65;0.50;;;22.10;99.90;;;;;;5053922;28;20228;-75
2021/12/30 10:38:46;;;;;;;2.67;0.50;;;22.10;99.90;;;;;;5054207;28;20217;-76
2021/12/30 10:41:18;;;;;;;4.95;0.65;;;22.00;99.90;;;;;;5054889;28;20214;-76
2021/12/30 10:43:57;;;;;;;2.00;0.35;;;22.00;99.90;;;;;;5061797;28;20189;-75
2021/12/30 10:46:30;;;;;;;2.15;0.57;;;22.00;99.90;;;;;;5053885;28;20189;-74
2021/12/30 10:49:07;;;;;;;3.40;0.60;;;22.00;99.90;;;;;;5052526;28;20197;-74
2021/12/30 10:51:41;;;;;;;3.78;0.50;;;22.00;99.90;;;;;;5053322;28;20588;-75
2021/12/30 10:54:15;;;;;;;4.47;0.52;;;22.00;99.90;;;;;;5054429;28;20239;-74
2021/12/30 10:56:48;;;;;;;4.35;0.40;;;21.90;99.90;;;;;;5054107;28;20232;-75
2021/12/30 10:59:28;;;;;;;2.80;0.38;;;21.90;99.90;;;;;;5054247;28;20251;-74
2021/12/30 11:02:01;;;;;;;2.15;0.47;;;21.90;99.90;;;;;;5054525;28;20247;-74
2021/12/30 11:04:37;;;;;;;2.40;0.45;;;21.90;99.90;;;;;;5054136;28;20201;-75
2021/12/30 11:07:09;;;;;;;2.50;0.50;;;21.90;99.90;;;;;;5054325;28;20193;-75
2021/12/30 11:09:46;;;;;;;3.95;0.60;;;21.90;99.90;;;;;;5053882;28;20197;-74
2021/12/30 11:12:17;;;;;;;1.90;0.50;;;21.90;99.90;;;;;;5054031;28;20193;-77
2021/12/30 11:14:50;;;;;;;4.80;0.60;;;21.90;99.90;;;;;;5051884;28;20676;-79
2021/12/30 11:17:23;;;;;;;3.67;0.85;;;21.90;99.90;;;;;;5052425;28;20525;-78
2021/12/30 11:19:56;;;;;;;4.40;0.60;;;21.80;99.90;;;;;;5054156;28;20240;-78
2021/12/30 11:22:28;;;;;;;3.97;0.35;;;21.80;99.90;;;;;;5052928;28;20579;-77
2021/12/30 11:25:00;;;;;;;2.80;0.60;;;21.80;99.90;;;;;;5049190;28;20189;-78
2021/12/30 11:27:31;;;;;;;1.73;0.43;;;21.80;99.90;;;;;;5054315;28;20652;-77
2021/12/30 11:30:08;;;;;;;4.57;0.63;;;21.80;99.90;;;;;;5054090;28;20194;-77
2021/12/30 11:32:40;;;;;;;4.25;0.80;;;21.70;99.90;;;;;;5054163;28;20190;-77
2021/12/30 11:35:11;;;;;;;2.75;0.47;;;21.70;99.90;;;;;;5054103;28;20200;-77
2021/12/30 11:37:42;;;;;;;2.95;0.55;;;21.70;99.90;;;;;;5053878;28;20226;-75
2021/12/30 11:40:15;;;;;;;2.42;0.70;;;21.70;99.90;;;;;;5053512;28;20221;-76
2021/12/30 11:42:48;;;;;;;2.75;0.57;;;21.70;99.90;;;;;;5049271;28;20198;-75
2021/12/30 11:45:33;;;;;;;2.58;0.60;;;21.70;99.90;;;;;;5054313;28;20205;-77
2021/12/30 11:48:06;;;;;;;4.43;0.63;;;21.60;99.90;;;;;;5053807;28;20216;-78
2021/12/30 11:50:38;;;;;;;2.30;0.73;;;21.60;99.90;;;;;;5053947;28;20194;-77
2021/12/30 11:53:12;;;;;;;3.05;0.40;;;21.60;99.90;;;;;;5052565;28;20247;-77
2021/12/30 11:55:53;;;;;;;4.03;0.50;;;21.50;99.90;;;;;;5049213;28;20215;-76
2021/12/30 11:58:43;;;;;;;4.80;0.60;;;21.50;99.90;;;;;;5052178;28;20200;-79
2021/12/30 12:01:47;;;;;;;2.45;0.45;;;21.50;99.90;;;;;;5045504;28;20209;-77
2021/12/30 12:04:29;;;;;;;3.05;0.50;;;21.50;99.90;;;;;;5052252;28;20646;-78
2021/12/30 12:07:06;;;;;;;3.78;0.70;;;21.40;99.90;;;;;;5052010;28;20193;-78
2021/12/30 12:09:40;;;;;;;2.78;0.40;;;21.40;99.90;;;;;;5052426;28;20186;-77
2021/12/30 12:12:31;;;;;;;2.95;0.52;;;21.40;99.90;;;;;;5053428;28;20235;-76
2021/12/30 12:15:03;;;;;;;2.72;0.55;;;21.40;99.90;;;;;;5052256;28;20649;-76
2021/12/30 12:17:43;;;;;;;3.28;0.60;;;21.40;99.90;;;;;;5052830;28;20193;-76
2021/12/30 12:20:18;;;;;;;4.30;0.65;;;21.40;99.90;;;;;;5051366;28;20291;-78
2021/12/30 12:22:49;;;;;;;3.42;0.45;;;21.40;99.90;;;;;;5051509;28;20632;-77
2021/12/30 12:25:22;;;;;;;3.15;0.52;;;21.40;99.90;;;;;;5052203;28;20197;-76
2021/12/30 12:27:55;;;;;;;5.30;0.70;;;21.30;99.90;;;;;;5051536;28;20285;-76
2021/12/30 12:30:31;;;;;;;2.95;0.60;;;21.30;99.90;;;;;;5052733;28;20620;-77
2021/12/30 12:33:24;;;;;;;3.83;0.60;;;21.30;99.90;;;;;;5052195;28;20630;-77
2021/12/30 12:35:54;;;;;;;2.17;0.47;;;21.30;99.90;;;;;;5051858;28;20666;-77
2021/12/30 12:38:43;;;;;;;2.08;0.50;;;21.30;99.90;;;;;;5052336;28;20210;-78
2021/12/30 12:41:25;;;;;;;5.50;0.60;;;21.30;99.90;;;;;;5044436;28;20214;-77
2021/12/30 12:43:59;;;;;;;6.75;0.50;;;21.20;99.90;;;;;;5035428;28;20991;-78
2021/12/30 12:46:45;;;;;;;3.20;0.60;;;21.20;99.90;;;;;;5052625;28;20250;-77
2021/12/30 12:49:38;;;;;;;2.55;0.55;;;21.20;99.90;;;;;;5052621;28;20216;-77
2021/12/30 12:52:09;;;;;;;3.58;0.50;;;21.20;99.90;;;;;;5051229;28;20263;-77
2021/12/30 12:54:42;;;;;;;4.50;0.60;;;21.20;99.90;;;;;;5051847;28;20190;-78
2021/12/30 12:57:15;;;;;;;4.15;0.70;;;21.10;99.90;;;;;;5046042;28;20980;-77
2021/12/30 12:59:46;;;;;;;2.45;0.68;;;21.10;99.90;;;;;;5051217;28;20213;-77
2021/12/30 13:02:17;;;;;;;1.92;0.40;;;21.10;99.90;;;;;;5050789;28;20208;-77
2021/12/30 13:04:50;;;;;;;1.83;0.60;;;21.10;99.90;;;;;;5052774;28;20194;-77
2021/12/30 13:07:22;;;;;;;3.40;0.60;;;21.00;99.90;;;;;;5050859;28;20259;-76
2021/12/30 13:09:54;;;;;;;2.35;0.70;;;21.00;99.90;;;;;;5053233;28;20197;-77
2021/12/30 13:12:24;;;;;;;2.38;0.50;;;21.00;99.90;;;;;;5055730;28;20232;-77
2021/12/30 13:14:58;;;;;;;4.57;0.70;;;20.90;99.90;;;;;;5055230;28;20192;-76